Time;durP1;ratioP1;P1;durP2;ratioP2;P2;SDS_P1;SDS_P2;PMS_P1;PMS_P2;Temp;Humidity;BMP_temperature;BMP_pressure;BME280_temperature;BME280_humidity;BME280_pressure;Samples;Min_cycle;Max_cycle;Signal;HPM_P1;HPM_P2
2021/12/24 00:01:52;;;;;;;9.97;4.10;;;8.70;99.90;;;;;;5010709;28;20385;-52
2021/12/24 00:04:18;;;;;;;7.55;4.20;;;8.70;99.90;;;;;;5005107;28;20408;-52
2021/12/24 00:06:44;;;;;;;8.30;4.30;;;8.70;99.90;;;;;;5009781;28;20440;-53
2021/12/24 00:09:10;;;;;;;7.88;3.65;;;8.60;99.90;;;;;;5006412;28;20397;-52
2021/12/24 00:11:36;;;;;;;8.90;3.70;;;8.40;99.90;;;;;;5009653;28;20404;-52
2021/12/24 00:14:05;;;;;;;7.40;3.60;;;8.40;99.90;;;;;;5007905;28;20926;-52
2021/12/24 00:16:40;;;;;;;7.55;3.60;;;8.50;99.90;;;;;;5008706;28;20389;-52
2021/12/24 00:19:17;;;;;;;10.00;4.20;;;8.50;99.90;;;;;;5010799;28;20378;-52
2021/12/24 00:35:34;;;;;;;9.20;4.40;;;8.20;99.90;;;;;;4991793;28;20400;-52
2021/12/24 00:38:10;;;;;;;8.93;4.50;;;8.10;99.90;;;;;;4990988;28;20474;-52
2021/12/24 00:40:44;;;;;;;9.82;4.60;;;8.00;99.90;;;;;;4990424;28;20477;-52
2021/12/24 00:43:13;;;;;;;11.75;4.63;;;8.10;99.90;;;;;;5005305;28;20404;-52
2021/12/24 00:45:42;;;;;;;9.90;4.70;;;8.10;99.90;;;;;;5009638;28;20874;-52
2021/12/24 00:48:11;;;;;;;8.95;4.68;;;7.90;99.90;;;;;;5003451;28;20408;-52
2021/12/24 00:51:06;;;;;;;10.02;4.32;;;7.80;99.90;;;;;;5003547;28;20381;-53
2021/12/24 00:55:59;;;;;;;8.40;4.33;;;7.70;99.90;;;;;;5004083;28;20415;-52
2021/12/24 00:58:25;;;;;;;9.80;4.60;;;7.70;99.90;;;;;;5009771;28;20385;-53
2021/12/24 01:00:51;;;;;;;9.10;4.38;;;7.80;99.90;;;;;;5009485;28;20395;-53
2021/12/24 01:03:17;;;;;;;10.47;4.70;;;7.80;99.90;;;;;;5010325;28;20381;-52
2021/12/24 01:05:43;;;;;;;8.85;4.88;;;7.80;99.90;;;;;;5007513;28;20492;-52
2021/12/24 01:08:12;;;;;;;8.57;4.00;;;7.90;99.90;;;;;;5009644;28;20477;-53
2021/12/24 01:10:46;;;;;;;8.40;4.50;;;7.90;99.90;;;;;;5008811;28;20424;-53
2021/12/24 01:13:12;;;;;;;7.80;4.30;;;8.00;99.90;;;;;;5009613;28;20416;-52
2021/12/24 01:15:49;;;;;;;9.70;4.60;;;7.90;99.90;;;;;;5009362;28;20385;-53
2021/12/24 01:18:48;;;;;;;8.85;4.10;;;7.90;99.90;;;;;;5009837;28;20385;-52
2021/12/24 01:26:45;;;;;;;8.43;4.60;;;7.60;99.90;;;;;;5004672;28;20404;-52
2021/12/24 01:29:38;;;;;;;9.85;4.20;;;7.60;99.90;;;;;;5000443;28;20506;-52
2021/12/24 01:42:47;;;;;;;10.00;4.30;;;7.80;99.90;;;;;;5008806;28;20862;-53
2021/12/24 01:45:19;;;;;;;8.10;3.83;;;7.90;99.90;;;;;;5009545;28;20389;-53
2021/12/24 01:47:45;;;;;;;8.32;4.20;;;7.90;99.90;;;;;;5008865;28;20790;-53
2021/12/24 01:50:11;;;;;;;10.00;4.47;;;7.90;99.90;;;;;;5009643;28;20430;-52
2021/12/24 01:52:38;;;;;;;10.32;4.82;;;8.10;99.90;;;;;;5008700;28;20409;-53
2021/12/24 01:55:05;;;;;;;9.35;4.20;;;8.00;99.90;;;;;;5012016;28;20841;-52
2021/12/24 01:57:32;;;;;;;9.40;4.30;;;8.00;99.90;;;;;;5012356;28;20512;-52
2021/12/24 01:59:59;;;;;;;8.88;4.60;;;8.00;99.90;;;;;;5013030;28;20400;-52
2021/12/24 02:02:27;;;;;;;9.15;3.85;;;8.00;99.90;;;;;;5012085;28;20423;-52
2021/12/24 02:04:53;;;;;;;8.98;3.55;;;8.00;99.90;;;;;;5000808;28;20405;-52
2021/12/24 02:07:19;;;;;;;7.00;3.50;;;8.10;99.90;;;;;;5008219;28;20733;-53
2021/12/24 02:09:44;;;;;;;8.10;4.10;;;8.00;99.90;;;;;;4993184;28;20497;-53
2021/12/24 02:12:11;;;;;;;8.82;3.90;;;8.00;99.90;;;;;;4993528;28;20530;-53
2021/12/24 02:14:39;;;;;;;8.32;3.90;;;7.90;99.90;;;;;;4992480;28;20397;-52
2021/12/24 02:30:40;;;;;;;8.88;3.50;;;8.20;99.90;;;;;;4993148;28;20409;-52
2021/12/24 02:33:07;;;;;;;7.83;3.40;;;8.40;99.90;;;;;;4991908;28;20480;-52
2021/12/24 02:35:34;;;;;;;7.38;3.50;;;8.40;99.90;;;;;;4992441;28;20542;-52
2021/12/24 02:38:01;;;;;;;7.10;3.60;;;8.40;99.90;;;;;;4993377;28;20867;-53
2021/12/24 02:40:27;;;;;;;9.60;3.60;;;8.40;99.90;;;;;;4992945;28;20386;-52
2021/12/24 02:42:55;;;;;;;8.05;3.40;;;8.50;99.90;;;;;;4992628;28;20386;-52
2021/12/24 02:45:26;;;;;;;8.07;3.70;;;8.50;99.90;;;;;;4992937;28;20469;-52
2021/12/24 02:56:04;;;;;;;7.40;3.42;;;8.80;99.90;;;;;;4992696;28;20434;-52
2021/12/24 02:58:57;;;;;;;6.78;3.20;;;8.80;99.90;;;;;;4992003;28;20398;-53
2021/12/24 03:01:27;;;;;;;9.75;3.70;;;8.70;99.90;;;;;;4990674;28;20398;-53
2021/12/24 03:03:52;;;;;;;7.13;2.92;;;8.70;99.90;;;;;;5007297;28;20943;-53
2021/12/24 03:06:21;;;;;;;8.97;3.50;;;8.60;99.90;;;;;;4991540;28;20470;-53
2021/12/24 03:08:47;;;;;;;7.18;3.35;;;8.80;99.90;;;;;;4991759;28;20506;-53
2021/12/24 03:11:13;;;;;;;7.00;2.78;;;8.80;99.90;;;;;;4992428;28;20482;-53
2021/12/24 03:13:40;;;;;;;7.40;3.10;;;8.70;99.90;;;;;;4991603;28;20473;-52
2021/12/24 03:16:06;;;;;;;7.87;3.00;;;8.70;99.90;;;;;;4992531;28;20482;-52
2021/12/24 03:18:35;;;;;;;8.07;3.40;;;8.70;99.90;;;;;;4991674;28;20910;-52
2021/12/24 03:21:13;;;;;;;7.38;3.15;;;8.80;99.90;;;;;;4992394;28;20469;-53
2021/12/24 03:23:42;;;;;;;7.00;3.10;;;8.80;99.90;;;;;;4991658;28;20422;-52
2021/12/24 03:26:10;;;;;;;6.85;2.90;;;8.80;99.90;;;;;;4991671;28;20438;-53
2021/12/24 03:28:37;;;;;;;7.00;2.70;;;8.80;99.90;;;;;;4990878;28;20409;-52
2021/12/24 03:31:06;;;;;;;8.90;3.50;;;8.90;99.90;;;;;;4992396;28;20394;-52
2021/12/24 03:33:34;;;;;;;9.80;3.22;;;9.00;99.90;;;;;;4991282;28;20418;-52
2021/12/24 03:36:01;;;;;;;8.20;3.10;;;9.10;99.90;;;;;;5007160;28;20832;-52
2021/12/24 03:38:28;;;;;;;7.32;3.30;;;7.90;99.90;;;;;;4992324;28;20409;-52
2021/12/24 03:40:53;;;;;;;9.85;3.80;;;9.20;99.90;;;;;;4991431;28;20395;-54
2021/12/24 03:43:19;;;;;;;8.40;3.60;;;9.30;99.90;;;;;;4992128;28;20393;-55
2021/12/24 03:48:41;;;;;;;6.90;3.20;;;9.40;99.90;;;;;;4992301;28;20469;-54
2021/12/24 03:51:25;;;;;;;7.50;3.10;;;9.20;99.90;;;;;;4992185;28;20505;-54
2021/12/24 03:56:36;;;;;;;6.90;2.85;;;9.30;99.90;;;;;;4991334;28;20429;-52
2021/12/24 03:59:04;;;;;;;7.75;3.10;;;9.20;99.90;;;;;;4991736;28;20387;-52
2021/12/24 04:01:29;;;;;;;9.20;3.13;;;9.30;99.90;;;;;;4991135;28;20409;-52
2021/12/24 04:03:55;;;;;;;7.03;3.30;;;9.40;99.90;;;;;;4991299;28;20478;-54
2021/12/24 04:06:21;;;;;;;6.30;2.80;;;9.40;99.90;;;;;;4991460;28;20756;-55
2021/12/24 04:08:47;;;;;;;6.97;3.33;;;9.50;99.90;;;;;;4990466;28;20494;-55
2021/12/24 04:11:13;;;;;;;7.00;2.93;;;9.50;99.90;;;;;;4993281;28;20842;-54
2021/12/24 04:13:39;;;;;;;7.88;3.55;;;9.50;99.90;;;;;;4995109;28;20908;-53
2021/12/24 04:16:05;;;;;;;6.07;2.80;;;9.40;99.90;;;;;;5006462;28;20479;-52
2021/12/24 04:26:26;;;;;;;7.38;3.03;;;9.50;99.90;;;;;;4990957;28;20740;-54
2021/12/24 04:28:52;;;;;;;8.00;3.00;;;9.70;99.90;;;;;;4990218;28;20410;-54
2021/12/24 04:31:22;;;;;;;8.15;3.13;;;9.70;99.90;;;;;;5009486;28;20408;-54
2021/12/24 04:33:49;;;;;;;8.00;2.90;;;9.80;99.90;;;;;;5010193;28;20400;-54
2021/12/24 04:36:37;;;;;;;7.30;3.22;;;9.90;99.90;;;;;;5010809;28;20385;-55
2021/12/24 05:03:35;;;;;;;8.35;3.60;;;9.90;99.90;;;;;;4994187;28;20389;-54
2021/12/24 05:08:56;;;;;;;8.80;3.30;;;9.80;99.90;;;;;;4990155;28;20721;-55
2021/12/24 05:11:21;;;;;;;9.02;3.67;;;9.90;99.90;;;;;;4989774;28;20453;-54
2021/12/24 05:13:48;;;;;;;8.85;3.80;;;9.80;99.90;;;;;;4988471;28;20395;-54
2021/12/24 05:16:40;;;;;;;7.28;3.50;;;9.80;99.90;;;;;;4990609;28;20379;-54
2021/12/24 05:21:42;;;;;;;7.72;3.85;;;9.60;99.90;;;;;;4989513;28;20391;-55
2021/12/24 05:24:14;;;;;;;11.40;3.97;;;9.60;99.90;;;;;;4990283;28;20390;-54
2021/12/24 05:26:43;;;;;;;8.35;3.60;;;9.60;99.90;;;;;;4989248;28;20391;-54
2021/12/24 05:29:12;;;;;;;9.20;3.70;;;9.50;99.90;;;;;;4989162;28;20421;-55
2021/12/24 05:31:37;;;;;;;7.57;3.90;;;9.50;99.90;;;;;;4989627;28;20420;-55
2021/12/24 05:34:03;;;;;;;9.43;4.13;;;9.50;99.90;;;;;;4997462;28;20405;-54
2021/12/24 05:36:29;;;;;;;8.55;3.80;;;9.50;99.90;;;;;;4994228;28;20382;-54
2021/12/24 05:38:56;;;;;;;7.45;3.80;;;9.60;99.90;;;;;;5009183;28;20381;-54
2021/12/24 05:41:22;;;;;;;8.40;4.07;;;9.60;99.90;;;;;;5005055;28;20456;-54
2021/12/24 05:43:48;;;;;;;9.40;4.00;;;9.60;99.90;;;;;;4989508;28;20379;-54
2021/12/24 05:46:15;;;;;;;7.40;3.88;;;9.50;99.90;;;;;;4990323;28;20387;-54
2021/12/24 05:48:40;;;;;;;8.68;4.10;;;9.60;99.90;;;;;;4989377;28;20390;-55
2021/12/24 05:51:06;;;;;;;8.53;3.90;;;9.70;99.90;;;;;;4990202;28;20736;-54
2021/12/24 05:53:32;;;;;;;9.32;3.70;;;9.70;99.90;;;;;;4989853;28;20509;-54
2021/12/24 05:55:58;;;;;;;7.40;3.80;;;9.70;99.90;;;;;;4989475;28;20421;-54
2021/12/24 05:58:24;;;;;;;8.82;3.88;;;9.70;99.90;;;;;;4989786;28;20413;-55
2021/12/24 06:00:50;;;;;;;9.50;3.92;;;9.60;99.90;;;;;;4990536;28;20875;-54
2021/12/24 06:03:16;;;;;;;8.10;4.10;;;9.60;99.90;;;;;;4996982;28;20390;-54
2021/12/24 06:05:43;;;;;;;8.40;4.20;;;9.50;99.90;;;;;;5007206;28;20846;-54
2021/12/24 06:08:09;;;;;;;9.00;4.70;;;9.50;99.90;;;;;;4990523;28;20386;-54
2021/12/24 06:10:36;;;;;;;7.80;3.85;;;9.60;99.90;;;;;;5004126;28;20397;-53
2021/12/24 06:13:05;;;;;;;9.18;4.20;;;9.60;99.90;;;;;;5008883;28;20415;-53
2021/12/24 06:15:41;;;;;;;10.30;4.53;;;9.50;99.90;;;;;;5006867;28;20451;-53
2021/12/24 06:18:12;;;;;;;8.90;4.50;;;9.50;99.90;;;;;;5008935;28;20407;-53
2021/12/24 06:20:40;;;;;;;8.60;4.18;;;9.50;99.90;;;;;;5008166;28;20396;-54
2021/12/24 06:23:07;;;;;;;9.52;4.18;;;9.50;99.90;;;;;;5008935;28;20388;-54
2021/12/24 06:25:33;;;;;;;9.10;4.00;;;9.70;99.90;;;;;;5008729;28;20416;-53
2021/12/24 06:27:59;;;;;;;8.73;4.30;;;9.60;99.90;;;;;;5005118;28;20400;-54
2021/12/24 06:30:29;;;;;;;7.90;3.78;;;9.60;99.90;;;;;;5007646;28;20484;-54
2021/12/24 06:32:55;;;;;;;9.27;4.45;;;9.60;99.90;;;;;;5006390;28;20405;-53
2021/12/24 06:35:21;;;;;;;11.77;4.40;;;9.80;99.90;;;;;;5008738;28;20873;-54
2021/12/24 06:37:47;;;;;;;9.05;4.07;;;9.80;99.90;;;;;;5007728;28;20432;-54
2021/12/24 06:40:13;;;;;;;10.03;4.27;;;9.80;99.90;;;;;;5010026;28;20409;-54
2021/12/24 06:42:38;;;;;;;8.55;4.50;;;9.90;99.90;;;;;;5011143;28;20393;-54
2021/12/24 06:45:04;;;;;;;9.80;4.93;;;9.90;99.90;;;;;;5012219;28;20388;-54
2021/12/24 06:47:30;;;;;;;9.30;4.78;;;10.00;99.90;;;;;;5012436;28;20861;-53
2021/12/24 06:49:56;;;;;;;10.50;4.50;;;8.30;99.90;;;;;;5011618;28;20377;-54
2021/12/24 06:52:21;;;;;;;8.63;4.53;;;10.10;99.90;;;;;;5011749;28;20404;-54
2021/12/24 06:54:47;;;;;;;9.13;5.10;;;10.10;99.90;;;;;;5010020;28;20389;-54
2021/12/24 06:57:17;;;;;;;9.13;4.70;;;10.10;99.90;;;;;;5009803;28;20381;-53
2021/12/24 06:59:43;;;;;;;9.63;4.80;;;10.20;99.90;;;;;;5010801;28;20500;-54
2021/12/24 07:02:09;;;;;;;10.93;4.70;;;10.30;99.90;;;;;;4996234;28;20475;-53
2021/12/24 07:04:35;;;;;;;8.40;4.45;;;10.30;99.90;;;;;;5012324;28;20427;-53
2021/12/24 07:07:00;;;;;;;8.63;4.30;;;10.40;99.90;;;;;;5010067;28;20442;-53
2021/12/24 07:09:26;;;;;;;8.13;4.40;;;10.30;99.90;;;;;;5009612;28;20396;-53
2021/12/24 07:11:51;;;;;;;11.70;4.60;;;10.20;99.90;;;;;;5009889;28;20474;-53
2021/12/24 07:14:17;;;;;;;8.07;4.20;;;10.20;99.90;;;;;;5010982;28;20475;-54
2021/12/24 07:16:43;;;;;;;9.40;4.80;;;10.10;99.90;;;;;;5011391;28;20392;-54
2021/12/24 07:19:09;;;;;;;8.00;4.18;;;9.90;99.90;;;;;;5011882;28;20854;-54
2021/12/24 07:21:35;;;;;;;9.70;4.57;;;9.80;99.90;;;;;;5011558;28;20803;-53
2021/12/24 07:24:02;;;;;;;9.70;4.27;;;9.70;99.90;;;;;;5010455;28;20393;-54
2021/12/24 07:26:28;;;;;;;7.95;4.15;;;9.60;99.90;;;;;;5009542;28;20408;-53
2021/12/24 07:28:54;;;;;;;9.60;4.33;;;9.50;99.90;;;;;;5010349;28;20417;-53
2021/12/24 07:31:20;;;;;;;13.20;4.60;;;9.50;99.90;;;;;;5010889;28;20945;-54
2021/12/24 07:33:48;;;;;;;11.27;4.60;;;9.50;99.90;;;;;;5010056;28;20417;-54
2021/12/24 07:36:14;;;;;;;10.68;4.50;;;9.50;99.90;;;;;;5011454;28;20381;-54
2021/12/24 07:38:40;;;;;;;9.90;4.80;;;9.50;99.90;;;;;;5010810;28;20396;-53
2021/12/24 07:41:06;;;;;;;8.15;4.43;;;9.50;99.90;;;;;;5008595;28;20401;-53
2021/12/24 07:43:32;;;;;;;8.45;4.10;;;9.60;99.90;;;;;;5009207;28;20405;-53
2021/12/24 07:45:58;;;;;;;10.80;4.80;;;9.60;99.90;;;;;;5010132;28;20490;-53
2021/12/24 07:48:28;;;;;;;8.50;4.30;;;9.60;99.90;;;;;;5004979;28;20414;-54
2021/12/24 07:53:22;;;;;;;9.00;4.32;;;9.70;99.90;;;;;;5007935;28;20420;-54
2021/12/24 07:55:48;;;;;;;8.93;4.32;;;9.70;99.90;;;;;;5003925;28;20397;-54
2021/12/24 07:58:15;;;;;;;11.10;5.10;;;9.70;99.90;;;;;;5008996;28;20516;-53
2021/12/24 08:00:41;;;;;;;8.98;4.50;;;9.70;99.90;;;;;;5009407;28;20893;-54
2021/12/24 08:03:08;;;;;;;9.70;4.57;;;9.80;99.90;;;;;;5010988;28;20389;-53
2021/12/24 08:05:37;;;;;;;11.10;5.00;;;9.60;99.90;;;;;;5010383;28;20435;-54
2021/12/24 08:08:03;;;;;;;12.32;5.13;;;9.50;99.90;;;;;;5008313;28;20896;-54
2021/12/24 08:10:31;;;;;;;9.67;5.00;;;9.40;99.90;;;;;;5000979;28;20477;-54
2021/12/24 08:12:56;;;;;;;10.50;5.40;;;9.30;99.90;;;;;;5000824;28;20517;-54
2021/12/24 08:15:22;;;;;;;9.30;4.20;;;9.30;99.90;;;;;;5029715;28;20813;-53
2021/12/24 08:17:48;;;;;;;7.65;4.00;;;9.30;99.90;;;;;;5029381;28;20417;-53
2021/12/24 08:20:15;;;;;;;10.50;4.60;;;9.30;99.90;;;;;;5030540;28;20474;-54
2021/12/24 08:22:41;;;;;;;10.37;4.57;;;9.30;99.90;;;;;;5029532;28;20395;-53
2021/12/24 08:25:08;;;;;;;9.05;4.10;;;9.20;99.90;;;;;;5030102;28;20375;-54
2021/12/24 08:27:38;;;;;;;9.18;4.18;;;9.10;99.90;;;;;;5029456;28;20749;-53
2021/12/24 08:30:06;;;;;;;9.32;4.10;;;9.10;99.90;;;;;;5030287;28;20928;-54
2021/12/24 08:32:37;;;;;;;9.85;4.60;;;9.10;99.90;;;;;;5029680;28;20765;-53
2021/12/24 08:35:07;;;;;;;10.00;4.20;;;9.10;99.90;;;;;;5001586;28;20412;-54
2021/12/24 08:37:33;;;;;;;9.23;4.65;;;9.20;99.90;;;;;;4990742;28;20370;-53
2021/12/24 08:39:59;;;;;;;10.40;4.80;;;9.20;99.90;;;;;;5004975;28;20438;-54
2021/12/24 08:42:24;;;;;;;9.38;4.22;;;9.40;99.90;;;;;;4993571;28;20404;-54
2021/12/24 08:44:51;;;;;;;11.40;4.80;;;9.30;99.90;;;;;;5000614;28;20392;-54
2021/12/24 08:47:16;;;;;;;8.63;4.30;;;9.30;99.90;;;;;;5009390;28;20432;-53
2021/12/24 08:49:42;;;;;;;8.65;4.30;;;9.40;99.90;;;;;;5009515;28;20502;-54
2021/12/24 08:52:08;;;;;;;8.40;4.40;;;9.40;99.90;;;;;;5009837;28;20412;-54
2021/12/24 08:54:34;;;;;;;10.27;4.50;;;9.40;99.90;;;;;;5010362;28;20850;-54
2021/12/24 08:56:59;;;;;;;7.82;4.22;;;9.20;99.90;;;;;;5009354;28;20383;-54
2021/12/24 08:59:25;;;;;;;8.90;4.20;;;9.00;99.90;;;;;;5009943;28;20487;-53
2021/12/24 09:01:58;;;;;;;8.80;4.32;;;8.80;99.90;;;;;;5008342;28;20550;-53
2021/12/24 09:04:24;;;;;;;8.30;4.13;;;8.70;99.90;;;;;;4990734;28;21198;-54
2021/12/24 09:06:50;;;;;;;9.07;4.18;;;8.60;99.90;;;;;;4997609;28;20377;-54
2021/12/24 09:09:16;;;;;;;8.23;4.33;;;8.70;99.90;;;;;;5001260;28;20402;-53
2021/12/24 09:11:44;;;;;;;11.48;4.53;;;8.80;99.90;;;;;;5008896;28;20817;-54
2021/12/24 09:14:10;;;;;;;7.65;3.90;;;8.90;99.90;;;;;;5013605;28;20821;-54
2021/12/24 09:16:37;;;;;;;9.27;4.10;;;8.90;99.90;;;;;;5029310;28;20394;-54
2021/12/24 09:19:08;;;;;;;8.80;4.20;;;9.00;99.90;;;;;;5028968;28;20441;-53
2021/12/24 09:21:35;;;;;;;8.75;3.83;;;9.00;99.90;;;;;;5023818;28;20894;-53
2021/12/24 09:24:01;;;;;;;9.05;4.30;;;8.90;99.90;;;;;;5004000;28;20423;-54
2021/12/24 09:26:29;;;;;;;8.80;3.97;;;8.90;99.90;;;;;;5010011;28;20377;-54
2021/12/24 09:28:56;;;;;;;8.75;3.90;;;9.00;99.90;;;;;;5008926;28;20439;-53
2021/12/24 09:31:23;;;;;;;10.40;4.60;;;9.10;99.90;;;;;;5004513;28;20414;-54
2021/12/24 09:33:48;;;;;;;7.50;3.60;;;9.10;99.90;;;;;;4993365;28;20446;-54
2021/12/24 09:36:14;;;;;;;8.10;4.15;;;9.00;99.90;;;;;;5004212;28;20798;-53
2021/12/24 09:38:40;;;;;;;8.33;4.20;;;9.10;99.90;;;;;;5001473;28;20382;-54
2021/12/24 09:41:06;;;;;;;10.00;4.35;;;9.10;99.90;;;;;;5004613;28;20471;-54
2021/12/24 09:43:31;;;;;;;8.27;4.20;;;9.10;99.90;;;;;;5000622;28;20878;-54
2021/12/24 09:45:57;;;;;;;10.40;4.43;;;9.10;99.90;;;;;;4995455;28;20370;-54
2021/12/24 09:48:23;;;;;;;11.32;4.82;;;9.10;99.90;;;;;;4995104;28;20443;-54
2021/12/24 09:50:48;;;;;;;8.93;4.40;;;9.10;99.90;;;;;;5003848;28;20392;-54
2021/12/24 09:53:14;;;;;;;10.30;5.38;;;9.00;99.90;;;;;;5009425;28;20412;-54
2021/12/24 09:55:40;;;;;;;9.10;4.60;;;9.10;99.90;;;;;;4993077;28;20410;-54
2021/12/24 09:58:05;;;;;;;8.70;4.40;;;9.10;99.90;;;;;;4996471;28;20495;-54
2021/12/24 10:00:32;;;;;;;10.77;5.10;;;9.10;99.90;;;;;;5009689;28;20866;-54
2021/12/24 10:02:59;;;;;;;8.30;4.90;;;9.10;99.90;;;;;;5008776;28;20681;-54
2021/12/24 10:05:40;;;;;;;10.37;4.57;;;9.00;99.90;;;;;;5009394;28;20522;-53
2021/12/24 10:08:08;;;;;;;10.20;5.18;;;9.00;99.90;;;;;;5009189;28;20500;-54
2021/12/24 10:10:41;;;;;;;10.15;5.35;;;8.90;99.90;;;;;;5009208;28;20529;-53
2021/12/24 10:13:28;;;;;;;12.82;5.65;;;9.00;99.90;;;;;;5011294;28;20412;-53
2021/12/24 10:16:02;;;;;;;12.43;5.53;;;9.00;99.90;;;;;;5006766;28;20437;-53
2021/12/24 10:18:34;;;;;;;8.77;5.10;;;9.00;99.90;;;;;;5009756;28;21000;-50
2021/12/24 10:21:02;;;;;;;12.13;5.03;;;8.80;99.90;;;;;;5004238;28;20435;-52
2021/12/24 10:23:46;;;;;;;15.02;5.70;;;8.80;99.90;;;;;;4999596;28;20497;-50
2021/12/24 10:26:19;;;;;;;10.00;4.82;;;8.90;99.90;;;;;;5002170;28;20409;-51
2021/12/24 10:29:02;;;;;;;10.45;5.60;;;8.90;99.90;;;;;;4994367;28;20851;-53
2021/12/24 10:31:39;;;;;;;12.13;5.20;;;8.80;99.90;;;;;;4999860;28;20417;-50
2021/12/24 10:34:19;;;;;;;13.18;6.40;;;8.80;99.90;;;;;;4996002;28;20402;-53
2021/12/24 10:36:55;;;;;;;10.95;5.45;;;8.80;99.90;;;;;;4994462;28;20504;-54
2021/12/24 10:39:25;;;;;;;12.00;6.20;;;8.80;99.90;;;;;;5004606;28;20420;-51
2021/12/24 10:41:53;;;;;;;58.85;40.58;;;8.90;99.90;;;;;;5004884;28;20878;-51
2021/12/24 10:44:28;;;;;;;19.48;10.52;;;8.80;99.90;;;;;;4998806;28;20397;-52
2021/12/24 10:47:25;;;;;;;17.38;11.77;;;8.90;99.90;;;;;;4991552;28;20463;-51
2021/12/24 10:49:58;;;;;;;21.60;17.60;;;8.90;99.90;;;;;;5006203;28;20492;-51
2021/12/24 10:55:00;;;;;;;20.95;15.43;;;8.90;99.90;;;;;;5007040;28;20389;-53
2021/12/24 10:57:30;;;;;;;16.57;8.60;;;8.90;99.90;;;;;;4993474;28;20436;-51
2021/12/24 10:59:59;;;;;;;14.00;5.80;;;8.90;99.90;;;;;;4993942;28;20446;-51
2021/12/24 11:02:31;;;;;;;11.50;5.93;;;8.90;99.90;;;;;;4993742;28;20425;-51
2021/12/24 11:04:58;;;;;;;17.98;6.60;;;8.90;99.90;;;;;;5005373;28;20453;-51
2021/12/24 11:07:32;;;;;;;11.90;6.35;;;8.80;99.90;;;;;;4999922;28;20440;-51
2021/12/24 11:10:12;;;;;;;10.27;5.00;;;8.90;99.90;;;;;;5003204;28;20420;-51
2021/12/24 11:12:42;;;;;;;11.52;5.25;;;9.00;99.90;;;;;;5003123;28;20822;-54
2021/12/24 11:15:28;;;;;;;9.50;4.90;;;9.00;99.90;;;;;;5000952;28;20429;-54
2021/12/24 11:18:00;;;;;;;12.35;5.95;;;9.00;99.90;;;;;;4993253;28;20445;-54
2021/12/24 11:20:28;;;;;;;10.32;5.93;;;8.90;99.90;;;;;;4993082;28;20430;-54
2021/12/24 11:23:03;;;;;;;14.18;6.72;;;9.10;99.90;;;;;;4997623;28;20474;-54
2021/12/24 11:25:40;;;;;;;11.90;5.65;;;9.00;99.90;;;;;;5011641;28;20393;-54
2021/12/24 11:28:08;;;;;;;10.80;5.43;;;9.00;99.90;;;;;;5005496;28;20399;-55
2021/12/24 11:30:36;;;;;;;10.65;6.45;;;9.00;99.90;;;;;;4999671;28;20417;-54
2021/12/24 11:33:02;;;;;;;13.63;7.57;;;9.00;99.90;;;;;;4991022;28;20423;-54
2021/12/24 11:35:29;;;;;;;10.90;4.70;;;9.10;99.90;;;;;;4993109;28;20434;-54
2021/12/24 11:37:55;;;;;;;11.47;4.50;;;9.10;99.90;;;;;;5007515;28;20454;-54
2021/12/24 11:40:24;;;;;;;10.40;4.80;;;9.20;99.90;;;;;;4996870;28;20413;-54
2021/12/24 11:42:58;;;;;;;13.43;8.20;;;9.20;99.90;;;;;;4993005;28;20509;-54
2021/12/24 11:45:26;;;;;;;14.20;10.98;;;9.10;99.90;;;;;;5002787;28;20731;-54
2021/12/24 11:47:52;;;;;;;13.90;5.30;;;9.20;99.90;;;;;;5004737;28;20759;-54
2021/12/24 11:50:20;;;;;;;13.53;7.70;;;9.20;99.90;;;;;;4991309;28;20490;-54
2021/12/24 11:52:48;;;;;;;8.82;5.07;;;9.20;99.90;;;;;;4990628;28;20410;-54
2021/12/24 11:55:14;;;;;;;9.10;4.70;;;9.20;99.90;;;;;;5007097;28;20818;-54
2021/12/24 11:57:54;;;;;;;14.75;8.18;;;9.20;99.90;;;;;;5006083;28;20426;-54
2021/12/24 12:00:26;;;;;;;8.40;3.80;;;9.30;99.90;;;;;;4994872;28;21110;-54
2021/12/24 12:02:52;;;;;;;9.40;3.70;;;9.50;99.90;;;;;;4999321;28;20880;-54
2021/12/24 12:05:24;;;;;;;11.32;7.05;;;9.60;99.90;;;;;;5002892;28;20483;-54
2021/12/24 12:07:51;;;;;;;10.60;5.60;;;9.60;99.90;;;;;;4999755;28;20419;-54
2021/12/24 12:10:59;;;;;;;8.82;5.70;;;9.60;99.90;;;;;;4998300;28;20432;-54
2021/12/24 12:14:04;;;;;;;9.20;5.75;;;9.70;99.90;;;;;;4995414;28;20747;-54
2021/12/24 12:16:38;;;;;;;12.50;9.80;;;9.90;99.90;;;;;;4991421;28;20537;-54
2021/12/24 12:19:21;;;;;;;10.35;6.22;;;9.90;99.90;;;;;;4993944;28;20424;-54
2021/12/24 12:25:00;;;;;;;6.85;3.30;;;10.00;99.90;;;;;;4998169;28;20409;-54
2021/12/24 12:27:55;;;;;;;7.75;4.20;;;10.10;99.90;;;;;;4999786;28;20924;-54
2021/12/24 12:30:30;;;;;;;9.80;6.18;;;10.30;99.90;;;;;;5007413;28;20817;-54
2021/12/24 12:33:11;;;;;;;10.60;5.32;;;10.50;99.90;;;;;;5002357;28;20501;-54
2021/12/24 12:35:53;;;;;;;6.65;3.60;;;10.40;99.90;;;;;;5001441;28;20492;-54
2021/12/24 12:38:33;;;;;;;6.70;3.22;;;10.40;99.90;;;;;;4999136;28;20409;-54
2021/12/24 12:41:31;;;;;;;9.35;3.97;;;10.30;99.90;;;;;;5000925;28;20953;-54
2021/12/24 12:43:59;;;;;;;7.32;3.60;;;10.20;99.90;;;;;;4995635;28;20461;-54
2021/12/24 12:46:31;;;;;;;14.55;9.48;;;10.30;99.90;;;;;;4997185;28;20508;-54
2021/12/24 12:49:00;;;;;;;8.20;3.10;;;10.20;99.90;;;;;;4995917;28;20947;-54
2021/12/24 12:51:49;;;;;;;6.30;2.85;;;10.10;99.90;;;;;;4995194;28;20809;-54
2021/12/24 12:54:41;;;;;;;6.60;3.05;;;10.10;99.90;;;;;;5003656;28;20438;-56
2021/12/24 12:57:27;;;;;;;8.98;3.40;;;10.00;99.90;;;;;;5007053;28;20444;-53
2021/12/24 13:00:08;;;;;;;5.80;2.80;;;10.00;99.90;;;;;;4999836;28;20542;-53
2021/12/24 13:02:56;;;;;;;6.75;2.80;;;10.00;99.90;;;;;;4996772;28;20397;-53
2021/12/24 13:05:25;;;;;;;4.93;2.30;;;10.00;99.90;;;;;;4999499;28;20761;-53
2021/12/24 13:07:51;;;;;;;5.53;2.30;;;10.00;99.90;;;;;;5003815;28;20420;-53
2021/12/24 13:10:18;;;;;;;8.55;2.80;;;10.00;99.90;;;;;;4994837;28;20406;-56
2021/12/24 13:12:44;;;;;;;5.80;2.15;;;10.00;99.90;;;;;;4999673;28;20433;-53
2021/12/24 13:15:16;;;;;;;6.40;2.20;;;10.00;99.90;;;;;;5002688;28;20472;-53
2021/12/24 13:17:48;;;;;;;4.97;1.73;;;10.10;99.90;;;;;;4998189;28;21031;-53
2021/12/24 13:22:40;;;;;;;4.93;1.92;;;10.10;99.90;;;;;;4995534;28;20414;-53
2021/12/24 13:25:09;;;;;;;5.30;2.65;;;10.20;99.90;;;;;;5001595;28;20397;-53
2021/12/24 13:27:45;;;;;;;8.40;2.90;;;10.20;99.90;;;;;;4997453;28;20415;-53
2021/12/24 13:30:20;;;;;;;7.47;2.30;;;10.20;99.90;;;;;;5000505;28;20878;-54
2021/12/24 13:32:54;;;;;;;5.25;2.10;;;10.20;99.90;;;;;;5006778;28;20423;-53
2021/12/24 13:35:23;;;;;;;5.45;1.85;;;10.30;99.90;;;;;;5003585;28;20398;-53
2021/12/24 13:37:49;;;;;;;5.00;1.90;;;10.30;99.90;;;;;;5003504;28;20406;-53
2021/12/24 13:40:20;;;;;;;8.85;2.30;;;10.20;99.90;;;;;;5003727;28;20940;-54
2021/12/24 13:42:51;;;;;;;4.78;1.80;;;10.20;99.90;;;;;;5008299;28;20396;-53
2021/12/24 13:45:18;;;;;;;5.70;1.90;;;10.20;99.90;;;;;;4997943;28;20387;-53
2021/12/24 13:47:58;;;;;;;6.72;1.73;;;10.30;99.90;;;;;;5006903;28;20424;-53
2021/12/24 13:54:32;;;;;;;5.07;1.90;;;10.20;99.90;;;;;;5006113;28;20389;-53
2021/12/24 13:56:03;;;;;;;3.95;1.30;;;10.20;99.90;;;;;;5001522;28;20696;-54
2021/12/24 13:58:29;;;;;;;4.43;1.50;;;10.00;99.90;;;;;;4996502;28;20913;-54
2021/12/24 14:00:57;;;;;;;5.10;1.70;;;10.00;99.90;;;;;;4998808;28;20409;-54
2021/12/24 14:03:29;;;;;;;6.60;1.60;;;10.10;99.90;;;;;;4996023;28;20404;-54
2021/12/24 14:05:57;;;;;;;4.80;1.70;;;10.10;99.90;;;;;;4994221;28;20405;-56
2021/12/24 14:08:25;;;;;;;8.27;2.10;;;10.00;99.90;;;;;;5006418;28;20401;-54
2021/12/24 14:11:11;;;;;;;4.55;1.65;;;9.90;99.90;;;;;;5001141;28;20415;-53
2021/12/24 14:13:43;;;;;;;8.30;1.70;;;9.90;99.90;;;;;;4995426;28;20462;-54
2021/12/24 14:18:50;;;;;;;6.90;2.00;;;9.80;99.90;;;;;;5007970;28;20472;-54
2021/12/24 14:24:06;;;;;;;7.60;2.40;;;9.80;99.90;;;;;;5007574;28;20419;-54
2021/12/24 14:26:34;;;;;;;5.03;2.00;;;9.70;99.90;;;;;;5008462;28;20408;-54
2021/12/24 14:29:05;;;;;;;5.80;2.20;;;9.70;99.90;;;;;;4997501;28;20422;-54
2021/12/24 14:31:52;;;;;;;5.93;2.00;;;9.70;99.90;;;;;;5006193;28;20407;-54
2021/12/24 14:34:43;;;;;;;5.25;2.15;;;9.70;99.90;;;;;;4995615;28;20426;-54
2021/12/24 14:37:19;;;;;;;8.05;2.03;;;9.80;99.90;;;;;;5003006;28;20439;-54
2021/12/24 14:39:51;;;;;;;8.00;2.77;;;9.80;99.90;;;;;;5001183;28;20858;-54
2021/12/24 14:42:19;;;;;;;7.30;2.00;;;9.90;99.90;;;;;;4993797;28;20414;-54
2021/12/24 14:44:46;;;;;;;6.80;1.90;;;9.90;99.90;;;;;;5004340;28;20408;-53
2021/12/24 14:47:12;;;;;;;6.00;2.37;;;10.00;99.90;;;;;;5001836;28;20450;-53
2021/12/24 14:49:40;;;;;;;4.80;1.90;;;9.90;99.90;;;;;;4992870;28;20402;-54
2021/12/24 14:52:22;;;;;;;7.45;2.20;;;9.00;99.90;;;;;;4995535;28;20514;-53
2021/12/24 14:55:16;;;;;;;5.57;1.70;;;9.90;99.90;;;;;;4996193;28;20428;-54
2021/12/24 14:57:48;;;;;;;6.38;1.70;;;9.90;99.90;;;;;;4993206;28;20422;-54
2021/12/24 15:00:17;;;;;;;6.03;1.40;;;9.90;99.90;;;;;;4997534;28;20433;-53
2021/12/24 15:02:46;;;;;;;9.00;1.90;;;10.00;99.90;;;;;;4997386;28;20729;-53
2021/12/24 15:05:28;;;;;;;7.78;1.88;;;10.00;99.90;;;;;;4997244;28;20412;-53